sensor_id;sensor_type;location;lat;lon;timestamp;temperature;humidity
23289;DHT22;11813;50.834;4.280;2023-04-24T00:01:25;9.80;99.90
23289;DHT22;11813;50.834;4.280;2023-04-24T00:03:50;9.80;99.90
23289;DHT22;11813;50.834;4.280;2023-04-24T00:06:16;9.80;99.90
23289;DHT22;11813;50.834;4.280;2023-04-24T00:08:42;9.80;99.90
23289;DHT22;11813;50.834;4.280;2023-04-24T00:11:08;9.70;99.90
23289;DHT22;11813;50.834;4.280;2023-04-24T00:13:34;9.70;99.90
23289;DHT22;11813;50.834;4.280;2023-04-24T00:16:00;9.80;99.90
23289;DHT22;11813;50.834;4.280;2023-04-24T00:18:26;9.80;99.90
23289;DHT22;11813;50.834;4.280;2023-04-24T00:20:51;9.80;99.90
23289;DHT22;11813;50.834;4.280;2023-04-24T00:23:17;9.80;99.90
23289;DHT22;11813;50.834;4.280;2023-04-24T00:25:43;9.70;99.90
23289;DHT22;11813;50.834;4.280;2023-04-24T00:28:08;9.70;99.90
23289;DHT22;11813;50.834;4.280;2023-04-24T00:30:35;9.70;99.90
23289;DHT22;11813;50.834;4.280;2023-04-24T00:33:01;9.70;99.90
23289;DHT22;11813;50.834;4.280;2023-04-24T00:35:27;9.70;99.90
23289;DHT22;11813;50.834;4.280;2023-04-24T00:37:52;9.70;99.90
23289;DHT22;11813;50.834;4.280;2023-04-24T00:40:18;9.70;99.90
23289;DHT22;11813;50.834;4.280;2023-04-24T00:42:44;9.70;99.90
23289;DHT22;11813;50.834;4.280;2023-04-24T00:45:10;9.70;99.90
23289;DHT22;11813;50.834;4.280;2023-04-24T00:47:36;9.80;99.90
23289;DHT22;11813;50.834;4.280;2023-04-24T00:50:06;9.70;99.90
23289;DHT22;11813;50.834;4.280;2023-04-24T00:52:32;9.70;99.90
23289;DHT22;11813;50.834;4.280;2023-04-24T00:54:58;9.70;99.90
23289;DHT22;11813;50.834;4.280;2023-04-24T00:57:24;9.70;99.90
23289;DHT22;11813;50.834;4.280;2023-04-24T00:59:52;9.60;99.90
23289;DHT22;11813;50.834;4.280;2023-04-24T01:02:18;9.60;99.90
23289;DHT22;11813;50.834;4.280;2023-04-24T01:04:45;9.70;99.90
23289;DHT22;11813;50.834;4.280;2023-04-24T01:07:10;9.60;99.90
23289;DHT22;11813;50.834;4.280;2023-04-24T01:09:44;9.70;99.90
23289;DHT22;11813;50.834;4.280;2023-04-24T01:12:12;9.70;99.90
23289;DHT22;11813;50.834;4.280;2023-04-24T01:14:38;9.50;99.90
23289;DHT22;11813;50.834;4.280;2023-04-24T01:17:04;9.50;99.90
23289;DHT22;11813;50.834;4.280;2023-04-24T01:19:29;9.50;99.90
23289;DHT22;11813;50.834;4.280;2023-04-24T01:21:58;9.60;99.90
23289;DHT22;11813;50.834;4.280;2023-04-24T01:24:24;9.60;99.90
23289;DHT22;11813;50.834;4.280;2023-04-24T01:26:50;9.60;99.90
23289;DHT22;11813;50.834;4.280;2023-04-24T01:29:16;9.60;99.90
23289;DHT22;11813;50.834;4.280;2023-04-24T01:31:41;9.60;99.90
23289;DHT22;11813;50.834;4.280;2023-04-24T01:34:07;9.60;99.90
23289;DHT22;11813;50.834;4.280;2023-04-24T01:36:35;9.50;99.90
23289;DHT22;11813;50.834;4.280;2023-04-24T01:39:01;9.60;99.90
23289;DHT22;11813;50.834;4.280;2023-04-24T01:41:28;9.50;99.90
23289;DHT22;11813;50.834;4.280;2023-04-24T01:43:54;9.50;99.90
23289;DHT22;11813;50.834;4.280;2023-04-24T01:46:20;9.50;99.90
23289;DHT22;11813;50.834;4.280;2023-04-24T01:48:46;9.50;99.90
23289;DHT22;11813;50.834;4.280;2023-04-24T01:51:12;9.60;99.90
23289;DHT22;11813;50.834;4.280;2023-04-24T01:53:38;9.60;99.90
23289;DHT22;11813;50.834;4.280;2023-04-24T01:56:03;9.60;99.90
23289;DHT22;11813;50.834;4.280;2023-04-24T01:58:30;9.50;99.90
23289;DHT22;11813;50.834;4.280;2023-04-24T02:00:59;9.40;99.90
23289;DHT22;11813;50.834;4.280;2023-04-24T02:03:26;9.40;99.90
23289;DHT22;11813;50.834;4.280;2023-04-24T02:05:51;9.40;99.90
23289;DHT22;11813;50.834;4.280;2023-04-24T02:08:17;9.40;99.90
23289;DHT22;11813;50.834;4.280;2023-04-24T02:10:43;9.50;99.90
23289;DHT22;11813;50.834;4.280;2023-04-24T02:13:08;9.50;99.90
23289;DHT22;11813;50.834;4.280;2023-04-24T02:15:34;9.50;99.90
23289;DHT22;11813;50.834;4.280;2023-04-24T02:18:01;9.40;99.90
23289;DHT22;11813;50.834;4.280;2023-04-24T02:20:26;9.40;99.90
23289;DHT22;11813;50.834;4.280;2023-04-24T02:22:52;9.40;99.90
23289;DHT22;11813;50.834;4.280;2023-04-24T02:25:18;9.40;99.90
23289;DHT22;11813;50.834;4.280;2023-04-24T02:27:43;9.40;99.90
23289;DHT22;11813;50.834;4.280;2023-04-24T02:30:09;9.40;99.90
23289;DHT22;11813;50.834;4.280;2023-04-24T02:32:35;9.40;99.90
23289;DHT22;11813;50.834;4.280;2023-04-24T02:35:01;9.50;99.90
23289;DHT22;11813;50.834;4.280;2023-04-24T02:37:26;9.40;99.90
23289;DHT22;11813;50.834;4.280;2023-04-24T02:39:52;9.40;99.90
23289;DHT22;11813;50.834;4.280;2023-04-24T02:42:18;9.40;99.90
23289;DHT22;11813;50.834;4.280;2023-04-24T02:44:43;9.50;99.90
23289;DHT22;11813;50.834;4.280;2023-04-24T02:47:09;9.40;99.90
23289;DHT22;11813;50.834;4.280;2023-04-24T02:49:34;9.30;99.90
23289;DHT22;11813;50.834;4.280;2023-04-24T02:52:00;9.40;99.90
23289;DHT22;11813;50.834;4.280;2023-04-24T02:54:25;9.30;99.90
23289;DHT22;11813;50.834;4.280;2023-04-24T02:56:51;9.40;99.90
23289;DHT22;11813;50.834;4.280;2023-04-24T02:59:17;9.30;99.90
23289;DHT22;11813;50.834;4.280;2023-04-24T03:01:42;9.20;99.90
23289;DHT22;11813;50.834;4.280;2023-04-24T03:04:08;9.20;99.90
23289;DHT22;11813;50.834;4.280;2023-04-24T03:06:33;9.30;99.90
23289;DHT22;11813;50.834;4.280;2023-04-24T03:09:01;9.30;99.90
23289;DHT22;11813;50.834;4.280;2023-04-24T03:11:26;9.20;99.90
23289;DHT22;11813;50.834;4.280;2023-04-24T03:13:52;9.20;99.90
23289;DHT22;11813;50.834;4.280;2023-04-24T03:16:17;9.20;99.90
23289;DHT22;11813;50.834;4.280;2023-04-24T03:18:43;9.30;99.90
23289;DHT22;11813;50.834;4.280;2023-04-24T03:21:09;9.30;99.90
23289;DHT22;11813;50.834;4.280;2023-04-24T03:23:34;9.20;99.90
23289;DHT22;11813;50.834;4.280;2023-04-24T03:26:00;9.20;99.90
23289;DHT22;11813;50.834;4.280;2023-04-24T03:28:26;9.30;99.90
23289;DHT22;11813;50.834;4.280;2023-04-24T03:30:51;9.30;99.90
23289;DHT22;11813;50.834;4.280;2023-04-24T03:33:17;9.20;99.90
23289;DHT22;11813;50.834;4.280;2023-04-24T03:35:43;9.20;99.90
23289;DHT22;11813;50.834;4.280;2023-04-24T03:38:08;9.20;99.90
23289;DHT22;11813;50.834;4.280;2023-04-24T03:40:34;9.10;99.90
23289;DHT22;11813;50.834;4.280;2023-04-24T03:43:00;9.10;99.90
23289;DHT22;11813;50.834;4.280;2023-04-24T03:45:25;9.10;99.90
23289;DHT22;11813;50.834;4.280;2023-04-24T03:47:51;9.20;99.90
23289;DHT22;11813;50.834;4.280;2023-04-24T03:50:16;9.10;99.90
23289;DHT22;11813;50.834;4.280;2023-04-24T03:52:42;9.10;99.90
23289;DHT22;11813;50.834;4.280;2023-04-24T03:55:08;9.10;99.90
23289;DHT22;11813;50.834;4.280;2023-04-24T03:57:33;9.20;99.90
23289;DHT22;11813;50.834;4.280;2023-04-24T03:59:59;9.30;99.90
23289;DHT22;11813;50.834;4.280;2023-04-24T04:02:25;9.30;99.90
23289;DHT22;11813;50.834;4.280;2023-04-24T04:04:50;9.30;99.90
23289;DHT22;11813;50.834;4.280;2023-04-24T04:07:16;9.30;99.90
23289;DHT22;11813;50.834;4.280;2023-04-24T04:09:42;9.30;99.90
23289;DHT22;11813;50.834;4.280;2023-04-24T04:12:07;9.30;99.90
23289;DHT22;11813;50.834;4.280;2023-04-24T04:14:33;9.20;99.90
23289;DHT22;11813;50.834;4.280;2023-04-24T04:16:58;9.10;99.90
23289;DHT22;11813;50.834;4.280;2023-04-24T04:19:24;9.20;99.90
23289;DHT22;11813;50.834;4.280;2023-04-24T04:21:50;9.20;99.90
23289;DHT22;11813;50.834;4.280;2023-04-24T04:24:19;9.30;99.90
23289;DHT22;11813;50.834;4.280;2023-04-24T04:26:46;9.20;99.90
23289;DHT22;11813;50.834;4.280;2023-04-24T04:29:13;9.20;99.90
23289;DHT22;11813;50.834;4.280;2023-04-24T04:31:39;9.10;99.90
23289;DHT22;11813;50.834;4.280;2023-04-24T04:34:05;9.10;99.90
23289;DHT22;11813;50.834;4.280;2023-04-24T04:36:31;9.10;99.90
23289;DHT22;11813;50.834;4.280;2023-04-24T04:38:56;9.00;99.90
23289;DHT22;11813;50.834;4.280;2023-04-24T04:41:24;9.00;99.90
23289;DHT22;11813;50.834;4.280;2023-04-24T04:43:50;8.90;99.90
23289;DHT22;11813;50.834;4.280;2023-04-24T04:46:16;8.90;99.90
23289;DHT22;11813;50.834;4.280;2023-04-24T04:48:41;8.90;99.90
23289;DHT22;11813;50.834;4.280;2023-04-24T04:51:07;8.90;99.90
23289;DHT22;11813;50.834;4.280;2023-04-24T04:53:33;8.80;99.90
23289;DHT22;11813;50.834;4.280;2023-04-24T04:55:58;8.80;99.90
23289;DHT22;11813;50.834;4.280;2023-04-24T04:58:25;8.90;99.90
23289;DHT22;11813;50.834;4.280;2023-04-24T05:00:50;8.90;99.90
23289;DHT22;11813;50.834;4.280;2023-04-24T05:03:16;8.80;99.90
23289;DHT22;11813;50.834;4.280;2023-04-24T05:05:42;8.90;99.90
23289;DHT22;11813;50.834;4.280;2023-04-24T05:08:08;8.90;99.90
23289;DHT22;11813;50.834;4.280;2023-04-24T05:10:34;8.90;99.90
23289;DHT22;11813;50.834;4.280;2023-04-24T05:13:02;8.90;99.90
23289;DHT22;11813;50.834;4.280;2023-04-24T05:15:28;8.90;99.90
23289;DHT22;11813;50.834;4.280;2023-04-24T05:17:53;8.90;99.90
23289;DHT22;11813;50.834;4.280;2023-04-24T05:20:19;8.80;99.90
23289;DHT22;11813;50.834;4.280;2023-04-24T05:22:45;8.80;99.90
23289;DHT22;11813;50.834;4.280;2023-04-24T05:25:10;8.80;99.90
23289;DHT22;11813;50.834;4.280;2023-04-24T05:27:37;8.90;99.90
23289;DHT22;11813;50.834;4.280;2023-04-24T05:30:04;8.90;99.90
23289;DHT22;11813;50.834;4.280;2023-04-24T05:32:30;8.80;99.90
23289;DHT22;11813;50.834;4.280;2023-04-24T05:34:55;8.80;99.90
23289;DHT22;11813;50.834;4.280;2023-04-24T05:37:21;8.80;99.90
23289;DHT22;11813;50.834;4.280;2023-04-24T05:39:47;8.80;99.90
23289;DHT22;11813;50.834;4.280;2023-04-24T05:42:12;8.80;99.90
23289;DHT22;11813;50.834;4.280;2023-04-24T05:44:38;8.80;99.90
23289;DHT22;11813;50.834;4.280;2023-04-24T05:47:03;8.80;99.90
23289;DHT22;11813;50.834;4.280;2023-04-24T05:49:29;8.70;99.90
23289;DHT22;11813;50.834;4.280;2023-04-24T05:51:55;8.80;99.90
23289;DHT22;11813;50.834;4.280;2023-04-24T05:54:20;8.80;99.90
23289;DHT22;11813;50.834;4.280;2023-04-24T05:56:46;8.70;99.90
23289;DHT22;11813;50.834;4.280;2023-04-24T05:59:12;8.80;99.90
23289;DHT22;11813;50.834;4.280;2023-04-24T06:01:37;8.80;99.90
23289;DHT22;11813;50.834;4.280;2023-04-24T06:04:03;8.70;99.90
23289;DHT22;11813;50.834;4.280;2023-04-24T06:06:29;8.70;99.90
23289;DHT22;11813;50.834;4.280;2023-04-24T06:08:55;8.70;99.90
23289;DHT22;11813;50.834;4.280;2023-04-24T06:11:21;8.60;99.90
23289;DHT22;11813;50.834;4.280;2023-04-24T06:13:46;8.70;99.90
23289;DHT22;11813;50.834;4.280;2023-04-24T06:16:12;8.60;99.90
23289;DHT22;11813;50.834;4.280;2023-04-24T06:18:38;8.70;99.90
23289;DHT22;11813;50.834;4.280;2023-04-24T06:21:03;8.70;99.90
23289;DHT22;11813;50.834;4.280;2023-04-24T06:23:29;8.70;99.90
23289;DHT22;11813;50.834;4.280;2023-04-24T06:25:57;8.70;99.90
23289;DHT22;11813;50.834;4.280;2023-04-24T06:28:23;8.60;99.90
23289;DHT22;11813;50.834;4.280;2023-04-24T06:30:48;8.70;99.90
23289;DHT22;11813;50.834;4.280;2023-04-24T06:33:14;8.60;99.90
23289;DHT22;11813;50.834;4.280;2023-04-24T06:35:40;8.60;99.90
23289;DHT22;11813;50.834;4.280;2023-04-24T06:38:06;8.70;99.90
23289;DHT22;11813;50.834;4.280;2023-04-24T06:40:31;8.70;99.90
23289;DHT22;11813;50.834;4.280;2023-04-24T06:42:57;8.70;99.90
23289;DHT22;11813;50.834;4.280;2023-04-24T06:45:25;8.70;99.90
23289;DHT22;11813;50.834;4.280;2023-04-24T06:47:51;8.70;99.90
23289;DHT22;11813;50.834;4.280;2023-04-24T06:50:16;8.70;99.90
23289;DHT22;11813;50.834;4.280;2023-04-24T06:52:42;8.90;99.90
23289;DHT22;11813;50.834;4.280;2023-04-24T06:55:08;8.80;99.90
23289;DHT22;11813;50.834;4.280;2023-04-24T06:57:34;8.90;99.90
23289;DHT22;11813;50.834;4.280;2023-04-24T06:59:59;9.00;99.90
23289;DHT22;11813;50.834;4.280;2023-04-24T07:02:25;9.00;99.90
23289;DHT22;11813;50.834;4.280;2023-04-24T07:04:51;9.10;99.90
23289;DHT22;11813;50.834;4.280;2023-04-24T07:07:18;9.10;99.90
23289;DHT22;11813;50.834;4.280;2023-04-24T07:09:43;9.10;99.90
23289;DHT22;11813;50.834;4.280;2023-04-24T07:12:11;9.10;99.90
23289;DHT22;11813;50.834;4.280;2023-04-24T07:14:37;9.10;99.90
23289;DHT22;11813;50.834;4.280;2023-04-24T07:17:04;9.20;99.90
23289;DHT22;11813;50.834;4.280;2023-04-24T07:19:30;9.20;99.90
23289;DHT22;11813;50.834;4.280;2023-04-24T07:21:56;9.20;99.90
23289;DHT22;11813;50.834;4.280;2023-04-24T07:24:24;9.30;99.90
23289;DHT22;11813;50.834;4.280;2023-04-24T07:26:51;9.30;99.90
23289;DHT22;11813;50.834;4.280;2023-04-24T07:29:17;9.40;99.90
23289;DHT22;11813;50.834;4.280;2023-04-24T07:31:43;9.50;99.90
23289;DHT22;11813;50.834;4.280;2023-04-24T07:34:08;9.40;99.90
23289;DHT22;11813;50.834;4.280;2023-04-24T07:36:34;9.40;99.90
23289;DHT22;11813;50.834;4.280;2023-04-24T07:38:59;9.40;99.90
23289;DHT22;11813;50.834;4.280;2023-04-24T07:41:25;9.40;99.90
23289;DHT22;11813;50.834;4.280;2023-04-24T07:43:52;9.40;99.90
23289;DHT22;11813;50.834;4.280;2023-04-24T07:46:19;9.50;99.90
23289;DHT22;11813;50.834;4.280;2023-04-24T07:48:45;9.70;99.90
23289;DHT22;11813;50.834;4.280;2023-04-24T07:51:14;9.90;99.90
23289;DHT22;11813;50.834;4.280;2023-04-24T07:53:39;10.00;99.90
23289;DHT22;11813;50.834;4.280;2023-04-24T07:56:05;10.00;99.90
23289;DHT22;11813;50.834;4.280;2023-04-24T07:58:31;10.00;99.90
23289;DHT22;11813;50.834;4.280;2023-04-24T08:00:57;9.90;99.90
23289;DHT22;11813;50.834;4.280;2023-04-24T08:03:22;9.80;99.90
23289;DHT22;11813;50.834;4.280;2023-04-24T08:05:49;9.80;99.90
23289;DHT22;11813;50.834;4.280;2023-04-24T08:08:16;9.80;99.90
23289;DHT22;11813;50.834;4.280;2023-04-24T08:10:42;9.80;99.90
23289;DHT22;11813;50.834;4.280;2023-04-24T08:13:07;9.90;99.90
23289;DHT22;11813;50.834;4.280;2023-04-24T08:15:33;9.90;99.90
23289;DHT22;11813;50.834;4.280;2023-04-24T08:17:59;9.90;99.90
23289;DHT22;11813;50.834;4.280;2023-04-24T08:20:25;10.00;99.90
23289;DHT22;11813;50.834;4.280;2023-04-24T08:22:50;10.00;99.90
23289;DHT22;11813;50.834;4.280;2023-04-24T08:25:18;10.00;99.90
23289;DHT22;11813;50.834;4.280;2023-04-24T08:27:44;9.90;99.90
23289;DHT22;11813;50.834;4.280;2023-04-24T08:30:10;10.00;99.90
23289;DHT22;11813;50.834;4.280;2023-04-24T08:32:36;10.00;99.90
23289;DHT22;11813;50.834;4.280;2023-04-24T08:35:02;10.00;99.90
23289;DHT22;11813;50.834;4.280;2023-04-24T08:37:28;10.00;99.90
23289;DHT22;11813;50.834;4.280;2023-04-24T08:39:54;10.20;99.90
23289;DHT22;11813;50.834;4.280;2023-04-24T08:42:20;10.30;99.90
23289;DHT22;11813;50.834;4.280;2023-04-24T08:44:48;10.50;99.90
23289;DHT22;11813;50.834;4.280;2023-04-24T08:47:15;10.60;99.90
23289;DHT22;11813;50.834;4.280;2023-04-24T08:49:40;10.70;99.90
23289;DHT22;11813;50.834;4.280;2023-04-24T08:52:06;10.80;99.90
23289;DHT22;11813;50.834;4.280;2023-04-24T08:54:34;11.10;99.90
23289;DHT22;11813;50.834;4.280;2023-04-24T08:57:01;11.20;99.90
23289;DHT22;11813;50.834;4.280;2023-04-24T08:59:29;11.50;99.90
23289;DHT22;11813;50.834;4.280;2023-04-24T09:01:56;11.70;99.90
23289;DHT22;11813;50.834;4.280;2023-04-24T09:04:23;11.70;99.90
23289;DHT22;11813;50.834;4.280;2023-04-24T09:06:56;11.60;99.90
23289;DHT22;11813;50.834;4.280;2023-04-24T09:09:24;11.60;99.90
23289;DHT22;11813;50.834;4.280;2023-04-24T09:11:50;11.90;99.90
23289;DHT22;11813;50.834;4.280;2023-04-24T09:14:19;11.80;99.90
23289;DHT22;11813;50.834;4.280;2023-04-24T09:16:45;11.70;99.90
23289;DHT22;11813;50.834;4.280;2023-04-24T09:19:11;11.60;99.90
23289;DHT22;11813;50.834;4.280;2023-04-24T09:21:36;11.40;99.90
23289;DHT22;11813;50.834;4.280;2023-04-24T09:24:06;11.20;99.90
23289;DHT22;11813;50.834;4.280;2023-04-24T09:26:35;11.10;99.90
23289;DHT22;11813;50.834;4.280;2023-04-24T09:29:02;10.90;99.90
23289;DHT22;11813;50.834;4.280;2023-04-24T09:31:29;11.00;99.90
23289;DHT22;11813;50.834;4.280;2023-04-24T09:34:00;11.30;99.90
23289;DHT22;11813;50.834;4.280;2023-04-24T09:36:31;11.70;99.90
23289;DHT22;11813;50.834;4.280;2023-04-24T09:39:04;11.80;99.90
23289;DHT22;11813;50.834;4.280;2023-04-24T09:41:32;12.00;99.90
23289;DHT22;11813;50.834;4.280;2023-04-24T09:44:17;11.90;99.90
23289;DHT22;11813;50.834;4.280;2023-04-24T09:46:49;11.70;99.90
23289;DHT22;11813;50.834;4.280;2023-04-24T09:49:20;11.30;99.90
23289;DHT22;11813;50.834;4.280;2023-04-24T09:51:45;11.00;99.90
23289;DHT22;11813;50.834;4.280;2023-04-24T09:54:19;10.90;99.90
23289;DHT22;11813;50.834;4.280;2023-04-24T09:56:49;10.80;99.90
23289;DHT22;11813;50.834;4.280;2023-04-24T09:59:16;10.90;99.90
23289;DHT22;11813;50.834;4.280;2023-04-24T10:01:42;11.10;99.90
23289;DHT22;11813;50.834;4.280;2023-04-24T10:04:23;11.10;99.90
23289;DHT22;11813;50.834;4.280;2023-04-24T10:06:50;11.10;99.90
23289;DHT22;11813;50.834;4.280;2023-04-24T10:09:18;11.20;99.90
23289;DHT22;11813;50.834;4.280;2023-04-24T10:11:46;11.20;99.90
23289;DHT22;11813;50.834;4.280;2023-04-24T10:14:13;11.30;99.90
23289;DHT22;11813;50.834;4.280;2023-04-24T10:16:39;11.50;99.90
23289;DHT22;11813;50.834;4.280;2023-04-24T10:19:06;11.40;99.90
23289;DHT22;11813;50.834;4.280;2023-04-24T10:21:33;11.40;99.90
23289;DHT22;11813;50.834;4.280;2023-04-24T10:23:59;11.40;99.90
23289;DHT22;11813;50.834;4.280;2023-04-24T10:26:29;11.60;99.90
23289;DHT22;11813;50.834;4.280;2023-04-24T10:28:57;11.70;99.90
23289;DHT22;11813;50.834;4.280;2023-04-24T10:31:23;11.70;99.90
23289;DHT22;11813;50.834;4.280;2023-04-24T10:33:50;11.60;99.90
23289;DHT22;11813;50.834;4.280;2023-04-24T10:36:17;11.60;99.90
23289;DHT22;11813;50.834;4.280;2023-04-24T10:38:45;11.50;99.90
23289;DHT22;11813;50.834;4.280;2023-04-24T10:41:13;11.60;99.90
23289;DHT22;11813;50.834;4.280;2023-04-24T10:43:42;11.80;99.90
23289;DHT22;11813;50.834;4.280;2023-04-24T10:46:08;12.00;99.90
23289;DHT22;11813;50.834;4.280;2023-04-24T10:48:36;12.10;99.90
23289;DHT22;11813;50.834;4.280;2023-04-24T10:51:11;12.10;99.90
23289;DHT22;11813;50.834;4.280;2023-04-24T10:53:38;12.30;99.90
23289;DHT22;11813;50.834;4.280;2023-04-24T10:56:08;12.40;99.90
23289;DHT22;11813;50.834;4.280;2023-04-24T10:58:43;12.20;99.90
23289;DHT22;11813;50.834;4.280;2023-04-24T11:01:32;12.20;99.90
23289;DHT22;11813;50.834;4.280;2023-04-24T11:04:02;12.20;99.90
23289;DHT22;11813;50.834;4.280;2023-04-24T11:09:09;12.00;99.90
23289;DHT22;11813;50.834;4.280;2023-04-24T11:11:38;12.20;99.90
23289;DHT22;11813;50.834;4.280;2023-04-24T11:14:07;11.90;99.90
23289;DHT22;11813;50.834;4.280;2023-04-24T11:16:43;11.60;99.90
23289;DHT22;11813;50.834;4.280;2023-04-24T11:21:48;11.70;99.90
23289;DHT22;11813;50.834;4.280;2023-04-24T11:24:24;11.80;99.90
23289;DHT22;11813;50.834;4.280;2023-04-24T11:30:02;11.70;99.90
23289;DHT22;11813;50.834;4.280;2023-04-24T11:35:07;11.60;99.90
23289;DHT22;11813;50.834;4.280;2023-04-24T11:37:35;11.70;99.90
23289;DHT22;11813;50.834;4.280;2023-04-24T11:40:02;11.80;99.90
23289;DHT22;11813;50.834;4.280;2023-04-24T11:42:34;11.70;99.90
23289;DHT22;11813;50.834;4.280;2023-04-24T11:45:00;11.80;99.90
23289;DHT22;11813;50.834;4.280;2023-04-24T11:47:31;12.00;99.90
23289;DHT22;11813;50.834;4.280;2023-04-24T11:49:59;12.30;99.90
23289;DHT22;11813;50.834;4.280;2023-04-24T11:52:26;12.70;99.90
23289;DHT22;11813;50.834;4.280;2023-04-24T11:54:51;13.00;99.90
23289;DHT22;11813;50.834;4.280;2023-04-24T11:57:21;13.10;99.90
23289;DHT22;11813;50.834;4.280;2023-04-24T11:59:47;12.80;99.90
23289;DHT22;11813;50.834;4.280;2023-04-24T12:02:26;12.70;99.90
23289;DHT22;11813;50.834;4.280;2023-04-24T12:04:53;12.60;99.90
23289;DHT22;11813;50.834;4.280;2023-04-24T12:07:19;12.80;99.90
23289;DHT22;11813;50.834;4.280;2023-04-24T12:09:47;13.00;99.90
23289;DHT22;11813;50.834;4.280;2023-04-24T12:12:14;13.10;99.90
23289;DHT22;11813;50.834;4.280;2023-04-24T12:14:52;13.00;99.90
23289;DHT22;11813;50.834;4.280;2023-04-24T12:17:27;12.70;99.90
23289;DHT22;11813;50.834;4.280;2023-04-24T12:19:57;12.90;99.90
23289;DHT22;11813;50.834;4.280;2023-04-24T12:22:23;13.20;99.90
23289;DHT22;11813;50.834;4.280;2023-04-24T12:25:00;13.50;99.90
23289;DHT22;11813;50.834;4.280;2023-04-24T12:27:32;14.00;99.90
23289;DHT22;11813;50.834;4.280;2023-04-24T12:30:03;13.80;99.90
23289;DHT22;11813;50.834;4.280;2023-04-24T12:32:29;13.60;99.90
23289;DHT22;11813;50.834;4.280;2023-04-24T12:34:56;13.40;99.90
23289;DHT22;11813;50.834;4.280;2023-04-24T12:37:26;13.70;99.90
23289;DHT22;11813;50.834;4.280;2023-04-24T12:40:06;14.30;99.90
23289;DHT22;11813;50.834;4.280;2023-04-24T12:42:33;14.60;99.90
23289;DHT22;11813;50.834;4.280;2023-04-24T12:45:02;15.00;99.90
23289;DHT22;11813;50.834;4.280;2023-04-24T12:47:29;15.10;99.90
23289;DHT22;11813;50.834;4.280;2023-04-24T12:49:55;14.50;99.90
23289;DHT22;11813;50.834;4.280;2023-04-24T12:52:26;13.90;99.90
23289;DHT22;11813;50.834;4.280;2023-04-24T12:54:59;13.90;99.90
23289;DHT22;11813;50.834;4.280;2023-04-24T12:57:27;13.70;99.90
23289;DHT22;11813;50.834;4.280;2023-04-24T12:59:58;13.50;99.90
23289;DHT22;11813;50.834;4.280;2023-04-24T13:02:25;13.40;99.90
23289;DHT22;11813;50.834;4.280;2023-04-24T13:04:53;13.10;99.90
23289;DHT22;11813;50.834;4.280;2023-04-24T13:07:19;13.30;99.90
23289;DHT22;11813;50.834;4.280;2023-04-24T13:09:45;14.00;99.90
23289;DHT22;11813;50.834;4.280;2023-04-24T13:12:11;14.60;99.90
23289;DHT22;11813;50.834;4.280;2023-04-24T13:14:37;15.20;99.90
23289;DHT22;11813;50.834;4.280;2023-04-24T13:17:03;15.30;99.90
23289;DHT22;11813;50.834;4.280;2023-04-24T13:19:29;15.40;99.90
23289;DHT22;11813;50.834;4.280;2023-04-24T13:21:56;14.80;99.90
23289;DHT22;11813;50.834;4.280;2023-04-24T13:24:25;14.80;99.90
23289;DHT22;11813;50.834;4.280;2023-04-24T13:26:52;14.80;99.90
23289;DHT22;11813;50.834;4.280;2023-04-24T13:29:17;14.60;99.90
23289;DHT22;11813;50.834;4.280;2023-04-24T13:31:43;14.90;99.90
23289;DHT22;11813;50.834;4.280;2023-04-24T13:34:09;14.80;99.90
23289;DHT22;11813;50.834;4.280;2023-04-24T13:36:35;14.60;99.90
23289;DHT22;11813;50.834;4.280;2023-04-24T13:39:02;14.50;99.90
23289;DHT22;11813;50.834;4.280;2023-04-24T13:41:29;14.30;99.90
23289;DHT22;11813;50.834;4.280;2023-04-24T13:43:55;14.50;99.90
23289;DHT22;11813;50.834;4.280;2023-04-24T13:46:21;14.60;99.90
23289;DHT22;11813;50.834;4.280;2023-04-24T13:48:47;14.50;99.90
23289;DHT22;11813;50.834;4.280;2023-04-24T13:51:12;14.80;99.90
23289;DHT22;11813;50.834;4.280;2023-04-24T13:53:38;15.20;99.90
23289;DHT22;11813;50.834;4.280;2023-04-24T13:56:04;15.40;99.90
23289;DHT22;11813;50.834;4.280;2023-04-24T13:58:31;15.40;99.90
23289;DHT22;11813;50.834;4.280;2023-04-24T14:00:57;15.40;99.90
23289;DHT22;11813;50.834;4.280;2023-04-24T14:03:23;15.20;99.90
23289;DHT22;11813;50.834;4.280;2023-04-24T14:05:49;15.20;99.90
23289;DHT22;11813;50.834;4.280;2023-04-24T14:08:15;15.10;99.90
23289;DHT22;11813;50.834;4.280;2023-04-24T14:10:40;14.90;99.90
23289;DHT22;11813;50.834;4.280;2023-04-24T14:13:07;14.30;99.90
23289;DHT22;11813;50.834;4.280;2023-04-24T14:15:33;13.90;99.90
23289;DHT22;11813;50.834;4.280;2023-04-24T14:17:58;13.70;99.90
23289;DHT22;11813;50.834;4.280;2023-04-24T14:20:24;13.70;99.90
23289;DHT22;11813;50.834;4.280;2023-04-24T14:22:49;13.50;99.90
23289;DHT22;11813;50.834;4.280;2023-04-24T14:25:15;13.40;99.90
23289;DHT22;11813;50.834;4.280;2023-04-24T14:27:41;13.30;99.90
23289;DHT22;11813;50.834;4.280;2023-04-24T14:30:07;13.10;99.90
23289;DHT22;11813;50.834;4.280;2023-04-24T14:32:33;12.90;99.90
23289;DHT22;11813;50.834;4.280;2023-04-24T14:34:59;12.90;99.90
23289;DHT22;11813;50.834;4.280;2023-04-24T14:37:25;12.80;99.90
23289;DHT22;11813;50.834;4.280;2023-04-24T14:39:50;12.90;99.90
23289;DHT22;11813;50.834;4.280;2023-04-24T14:42:16;13.00;99.90
23289;DHT22;11813;50.834;4.280;2023-04-24T14:44:42;12.90;99.90
23289;DHT22;11813;50.834;4.280;2023-04-24T14:47:08;13.00;99.90
23289;DHT22;11813;50.834;4.280;2023-04-24T14:49:33;12.90;99.90
23289;DHT22;11813;50.834;4.280;2023-04-24T14:51:59;12.90;99.90
23289;DHT22;11813;50.834;4.280;2023-04-24T14:54:25;12.90;99.90
23289;DHT22;11813;50.834;4.280;2023-04-24T14:56:51;12.80;99.90
23289;DHT22;11813;50.834;4.280;2023-04-24T14:59:16;12.90;99.90
23289;DHT22;11813;50.834;4.280;2023-04-24T15:01:42;12.90;99.90
23289;DHT22;11813;50.834;4.280;2023-04-24T15:04:07;13.00;99.90
23289;DHT22;11813;50.834;4.280;2023-04-24T15:06:33;13.10;99.90
23289;DHT22;11813;50.834;4.280;2023-04-24T15:08:59;13.40;99.90
23289;DHT22;11813;50.834;4.280;2023-04-24T15:11:24;13.50;99.90
23289;DHT22;11813;50.834;4.280;2023-04-24T15:13:50;13.50;99.90
23289;DHT22;11813;50.834;4.280;2023-04-24T15:16:15;13.40;99.90
23289;DHT22;11813;50.834;4.280;2023-04-24T15:18:41;13.10;99.90
23289;DHT22;11813;50.834;4.280;2023-04-24T15:21:07;13.00;99.90
23289;DHT22;11813;50.834;4.280;2023-04-24T15:23:33;12.70;99.90
23289;DHT22;11813;50.834;4.280;2023-04-24T15:25:59;12.80;99.90
23289;DHT22;11813;50.834;4.280;2023-04-24T15:28:25;13.00;99.90
23289;DHT22;11813;50.834;4.280;2023-04-24T15:30:50;13.20;99.90
23289;DHT22;11813;50.834;4.280;2023-04-24T15:33:16;13.40;99.90
23289;DHT22;11813;50.834;4.280;2023-04-24T15:35:42;13.30;99.90
23289;DHT22;11813;50.834;4.280;2023-04-24T15:38:07;13.30;99.90
23289;DHT22;11813;50.834;4.280;2023-04-24T15:40:34;13.40;99.90
23289;DHT22;11813;50.834;4.280;2023-04-24T15:43:00;13.30;99.90
23289;DHT22;11813;50.834;4.280;2023-04-24T15:45:26;13.30;99.90
23289;DHT22;11813;50.834;4.280;2023-04-24T15:47:51;13.00;99.90